sensor_id;sensor_type;location;lat;lon;timestamp;P1;durP1;ratioP1;P2;durP2;ratioP2
10904;SDS011;5505;51.450;9.254;2023-06-26T00:01:33;5.47;;;3.63;;
10904;SDS011;5505;51.450;9.254;2023-06-26T00:04:20;5.60;;;4.10;;
10904;SDS011;5505;51.450;9.254;2023-06-26T00:07:06;6.77;;;4.33;;
10904;SDS011;5505;51.450;9.254;2023-06-26T00:09:53;4.20;;;3.80;;
10904;SDS011;5505;51.450;9.254;2023-06-26T00:12:40;5.10;;;3.87;;
10904;SDS011;5505;51.450;9.254;2023-06-26T00:15:28;4.57;;;3.67;;
10904;SDS011;5505;51.450;9.254;2023-06-26T00:18:16;4.33;;;3.53;;
10904;SDS011;5505;51.450;9.254;2023-06-26T00:21:03;6.33;;;3.67;;
10904;SDS011;5505;51.450;9.254;2023-06-26T00:23:50;7.70;;;3.67;;
10904;SDS011;5505;51.450;9.254;2023-06-26T00:26:36;7.67;;;3.97;;
10904;SDS011;5505;51.450;9.254;2023-06-26T00:29:23;6.97;;;3.90;;
10904;SDS011;5505;51.450;9.254;2023-06-26T00:32:11;7.03;;;4.33;;
10904;SDS011;5505;51.450;9.254;2023-06-26T00:34:58;7.73;;;4.40;;
10904;SDS011;5505;51.450;9.254;2023-06-26T00:37:45;7.17;;;4.50;;
10904;SDS011;5505;51.450;9.254;2023-06-26T00:40:31;4.17;;;3.73;;
10904;SDS011;5505;51.450;9.254;2023-06-26T00:43:18;5.07;;;4.23;;
10904;SDS011;5505;51.450;9.254;2023-06-26T00:46:05;11.10;;;4.20;;
10904;SDS011;5505;51.450;9.254;2023-06-26T00:48:56;6.60;;;3.80;;
10904;SDS011;5505;51.450;9.254;2023-06-26T00:51:45;7.47;;;4.00;;
10904;SDS011;5505;51.450;9.254;2023-06-26T00:54:32;5.83;;;4.50;;
10904;SDS011;5505;51.450;9.254;2023-06-26T00:57:19;9.43;;;4.33;;
10904;SDS011;5505;51.450;9.254;2023-06-26T01:00:07;9.10;;;4.93;;
10904;SDS011;5505;51.450;9.254;2023-06-26T01:02:57;9.23;;;4.47;;
10904;SDS011;5505;51.450;9.254;2023-06-26T01:05:45;7.33;;;4.20;;
10904;SDS011;5505;51.450;9.254;2023-06-26T01:08:34;6.30;;;4.47;;
10904;SDS011;5505;51.450;9.254;2023-06-26T01:11:21;4.70;;;4.30;;
10904;SDS011;5505;51.450;9.254;2023-06-26T01:14:08;6.57;;;4.13;;
10904;SDS011;5505;51.450;9.254;2023-06-26T01:16:54;8.63;;;3.80;;
10904;SDS011;5505;51.450;9.254;2023-06-26T01:19:42;7.57;;;4.13;;
10904;SDS011;5505;51.450;9.254;2023-06-26T01:22:34;6.67;;;4.40;;
10904;SDS011;5505;51.450;9.254;2023-06-26T01:25:32;9.67;;;4.30;;
10904;SDS011;5505;51.450;9.254;2023-06-26T01:28:25;6.60;;;4.37;;
10904;SDS011;5505;51.450;9.254;2023-06-26T01:31:13;5.50;;;4.20;;
10904;SDS011;5505;51.450;9.254;2023-06-26T01:34:01;4.90;;;4.40;;
10904;SDS011;5505;51.450;9.254;2023-06-26T01:36:48;6.17;;;4.00;;
10904;SDS011;5505;51.450;9.254;2023-06-26T01:39:34;7.43;;;3.93;;
10904;SDS011;5505;51.450;9.254;2023-06-26T01:42:21;10.47;;;4.37;;
10904;SDS011;5505;51.450;9.254;2023-06-26T01:45:13;5.57;;;3.80;;
10904;SDS011;5505;51.450;9.254;2023-06-26T01:48:13;7.57;;;4.07;;
10904;SDS011;5505;51.450;9.254;2023-06-26T01:51:02;10.40;;;4.50;;
10904;SDS011;5505;51.450;9.254;2023-06-26T01:53:52;8.20;;;4.10;;
10904;SDS011;5505;51.450;9.254;2023-06-26T01:56:42;13.30;;;4.53;;
10904;SDS011;5505;51.450;9.254;2023-06-26T01:59:31;10.57;;;4.37;;
10904;SDS011;5505;51.450;9.254;2023-06-26T02:02:20;6.67;;;4.00;;
10904;SDS011;5505;51.450;9.254;2023-06-26T02:05:09;8.07;;;4.30;;
10904;SDS011;5505;51.450;9.254;2023-06-26T02:07:56;9.00;;;4.03;;
10904;SDS011;5505;51.450;9.254;2023-06-26T02:10:43;10.50;;;4.30;;
10904;SDS011;5505;51.450;9.254;2023-06-26T02:13:30;5.17;;;3.90;;
10904;SDS011;5505;51.450;9.254;2023-06-26T02:16:16;10.40;;;4.13;;
10904;SDS011;5505;51.450;9.254;2023-06-26T02:19:05;10.10;;;4.37;;
10904;SDS011;5505;51.450;9.254;2023-06-26T02:21:52;6.73;;;4.23;;
10904;SDS011;5505;51.450;9.254;2023-06-26T02:24:38;7.33;;;4.10;;
10904;SDS011;5505;51.450;9.254;2023-06-26T02:27:25;6.73;;;4.30;;
10904;SDS011;5505;51.450;9.254;2023-06-26T02:30:12;7.73;;;4.70;;
10904;SDS011;5505;51.450;9.254;2023-06-26T02:32:59;6.67;;;4.30;;
10904;SDS011;5505;51.450;9.254;2023-06-26T02:35:47;6.50;;;4.20;;
10904;SDS011;5505;51.450;9.254;2023-06-26T02:38:35;11.33;;;4.33;;
10904;SDS011;5505;51.450;9.254;2023-06-26T02:41:21;10.93;;;4.70;;
10904;SDS011;5505;51.450;9.254;2023-06-26T02:44:08;5.43;;;4.10;;
10904;SDS011;5505;51.450;9.254;2023-06-26T02:46:56;9.03;;;4.60;;
10904;SDS011;5505;51.450;9.254;2023-06-26T02:49:43;8.50;;;4.00;;
10904;SDS011;5505;51.450;9.254;2023-06-26T02:52:31;8.43;;;4.20;;
10904;SDS011;5505;51.450;9.254;2023-06-26T02:55:18;9.03;;;4.10;;
10904;SDS011;5505;51.450;9.254;2023-06-26T02:58:06;7.83;;;4.20;;
10904;SDS011;5505;51.450;9.254;2023-06-26T03:00:52;9.73;;;4.20;;
10904;SDS011;5505;51.450;9.254;2023-06-26T03:03:40;10.80;;;4.13;;
10904;SDS011;5505;51.450;9.254;2023-06-26T03:06:27;8.93;;;4.30;;
10904;SDS011;5505;51.450;9.254;2023-06-26T03:09:15;10.13;;;4.47;;
10904;SDS011;5505;51.450;9.254;2023-06-26T03:12:03;6.63;;;4.37;;
10904;SDS011;5505;51.450;9.254;2023-06-26T03:14:50;6.37;;;4.40;;
10904;SDS011;5505;51.450;9.254;2023-06-26T03:17:36;7.83;;;4.17;;
10904;SDS011;5505;51.450;9.254;2023-06-26T03:20:23;8.37;;;4.00;;
10904;SDS011;5505;51.450;9.254;2023-06-26T03:23:10;6.40;;;4.13;;
10904;SDS011;5505;51.450;9.254;2023-06-26T03:25:58;9.53;;;4.10;;
10904;SDS011;5505;51.450;9.254;2023-06-26T03:28:45;7.97;;;4.33;;
10904;SDS011;5505;51.450;9.254;2023-06-26T03:31:31;5.30;;;3.73;;
10904;SDS011;5505;51.450;9.254;2023-06-26T03:34:18;8.93;;;4.33;;
10904;SDS011;5505;51.450;9.254;2023-06-26T03:37:06;7.43;;;4.07;;
10904;SDS011;5505;51.450;9.254;2023-06-26T03:39:53;9.17;;;4.20;;
10904;SDS011;5505;51.450;9.254;2023-06-26T03:42:41;6.43;;;4.70;;
10904;SDS011;5505;51.450;9.254;2023-06-26T03:45:28;8.53;;;4.80;;
10904;SDS011;5505;51.450;9.254;2023-06-26T03:48:15;6.33;;;4.20;;
10904;SDS011;5505;51.450;9.254;2023-06-26T03:51:02;10.27;;;3.93;;
10904;SDS011;5505;51.450;9.254;2023-06-26T03:53:49;7.63;;;4.97;;
10904;SDS011;5505;51.450;9.254;2023-06-26T03:56:35;8.73;;;4.50;;
10904;SDS011;5505;51.450;9.254;2023-06-26T03:59:24;8.27;;;4.73;;
10904;SDS011;5505;51.450;9.254;2023-06-26T04:02:10;7.23;;;4.53;;
10904;SDS011;5505;51.450;9.254;2023-06-26T04:04:58;7.23;;;4.60;;
10904;SDS011;5505;51.450;9.254;2023-06-26T04:07:45;8.47;;;4.73;;
10904;SDS011;5505;51.450;9.254;2023-06-26T04:10:35;7.87;;;4.40;;
10904;SDS011;5505;51.450;9.254;2023-06-26T04:13:22;8.20;;;5.10;;
10904;SDS011;5505;51.450;9.254;2023-06-26T04:16:10;7.50;;;5.10;;
10904;SDS011;5505;51.450;9.254;2023-06-26T04:18:57;6.57;;;4.50;;
10904;SDS011;5505;51.450;9.254;2023-06-26T04:21:44;5.30;;;4.70;;
10904;SDS011;5505;51.450;9.254;2023-06-26T04:24:31;5.03;;;4.50;;
10904;SDS011;5505;51.450;9.254;2023-06-26T04:27:18;7.50;;;5.00;;
10904;SDS011;5505;51.450;9.254;2023-06-26T04:30:05;7.87;;;5.20;;
10904;SDS011;5505;51.450;9.254;2023-06-26T04:32:54;7.20;;;5.63;;
10904;SDS011;5505;51.450;9.254;2023-06-26T04:35:43;7.17;;;5.47;;
10904;SDS011;5505;51.450;9.254;2023-06-26T04:38:33;8.70;;;5.23;;
10904;SDS011;5505;51.450;9.254;2023-06-26T04:41:20;8.10;;;5.40;;
10904;SDS011;5505;51.450;9.254;2023-06-26T04:44:07;8.23;;;6.17;;
10904;SDS011;5505;51.450;9.254;2023-06-26T04:46:54;7.10;;;6.40;;
10904;SDS011;5505;51.450;9.254;2023-06-26T04:49:42;6.73;;;6.03;;
10904;SDS011;5505;51.450;9.254;2023-06-26T04:52:30;6.63;;;5.80;;
10904;SDS011;5505;51.450;9.254;2023-06-26T04:55:17;7.47;;;5.60;;
10904;SDS011;5505;51.450;9.254;2023-06-26T04:58:06;7.03;;;6.10;;
10904;SDS011;5505;51.450;9.254;2023-06-26T05:00:53;7.90;;;6.00;;
10904;SDS011;5505;51.450;9.254;2023-06-26T05:03:39;6.37;;;5.30;;
10904;SDS011;5505;51.450;9.254;2023-06-26T05:06:27;10.93;;;5.47;;
10904;SDS011;5505;51.450;9.254;2023-06-26T05:09:14;9.70;;;6.10;;
10904;SDS011;5505;51.450;9.254;2023-06-26T05:12:01;5.90;;;5.30;;
10904;SDS011;5505;51.450;9.254;2023-06-26T05:14:49;6.63;;;5.40;;
10904;SDS011;5505;51.450;9.254;2023-06-26T05:17:35;6.70;;;5.80;;
10904;SDS011;5505;51.450;9.254;2023-06-26T05:20:22;6.23;;;5.03;;
10904;SDS011;5505;51.450;9.254;2023-06-26T05:23:11;7.67;;;5.37;;
10904;SDS011;5505;51.450;9.254;2023-06-26T05:25:59;6.83;;;5.20;;
10904;SDS011;5505;51.450;9.254;2023-06-26T05:28:46;7.67;;;5.60;;
10904;SDS011;5505;51.450;9.254;2023-06-26T05:31:33;7.13;;;5.57;;
10904;SDS011;5505;51.450;9.254;2023-06-26T05:34:26;6.03;;;5.43;;
10904;SDS011;5505;51.450;9.254;2023-06-26T05:37:14;10.30;;;5.63;;
10904;SDS011;5505;51.450;9.254;2023-06-26T05:40:08;5.70;;;5.13;;
10904;SDS011;5505;51.450;9.254;2023-06-26T05:42:56;6.13;;;5.53;;
10904;SDS011;5505;51.450;9.254;2023-06-26T05:45:43;7.07;;;5.07;;
10904;SDS011;5505;51.450;9.254;2023-06-26T05:48:30;9.13;;;5.50;;
10904;SDS011;5505;51.450;9.254;2023-06-26T05:51:17;6.03;;;5.33;;
10904;SDS011;5505;51.450;9.254;2023-06-26T05:54:04;6.00;;;5.23;;
10904;SDS011;5505;51.450;9.254;2023-06-26T05:56:52;8.10;;;5.60;;
10904;SDS011;5505;51.450;9.254;2023-06-26T05:59:44;5.60;;;5.10;;
10904;SDS011;5505;51.450;9.254;2023-06-26T06:02:32;7.47;;;5.53;;
10904;SDS011;5505;51.450;9.254;2023-06-26T06:05:19;7.13;;;5.37;;
10904;SDS011;5505;51.450;9.254;2023-06-26T06:08:06;6.30;;;5.20;;
10904;SDS011;5505;51.450;9.254;2023-06-26T06:10:52;6.23;;;5.43;;
10904;SDS011;5505;51.450;9.254;2023-06-26T06:13:41;5.77;;;5.10;;
10904;SDS011;5505;51.450;9.254;2023-06-26T06:16:27;5.93;;;4.83;;
10904;SDS011;5505;51.450;9.254;2023-06-26T06:19:14;9.03;;;5.77;;
10904;SDS011;5505;51.450;9.254;2023-06-26T06:22:01;5.00;;;4.30;;
10904;SDS011;5505;51.450;9.254;2023-06-26T06:24:48;4.80;;;4.40;;
10904;SDS011;5505;51.450;9.254;2023-06-26T06:27:36;5.23;;;4.00;;
10904;SDS011;5505;51.450;9.254;2023-06-26T06:30:24;6.37;;;3.83;;
10904;SDS011;5505;51.450;9.254;2023-06-26T06:33:12;4.07;;;3.73;;
10904;SDS011;5505;51.450;9.254;2023-06-26T06:35:59;4.33;;;3.93;;
10904;SDS011;5505;51.450;9.254;2023-06-26T06:38:45;4.33;;;4.00;;
10904;SDS011;5505;51.450;9.254;2023-06-26T06:41:32;4.50;;;4.00;;
10904;SDS011;5505;51.450;9.254;2023-06-26T06:44:19;4.07;;;3.50;;
10904;SDS011;5505;51.450;9.254;2023-06-26T06:47:07;4.50;;;3.70;;
10904;SDS011;5505;51.450;9.254;2023-06-26T06:49:54;4.23;;;3.93;;
10904;SDS011;5505;51.450;9.254;2023-06-26T06:52:42;5.80;;;3.80;;
10904;SDS011;5505;51.450;9.254;2023-06-26T06:55:28;4.30;;;3.90;;
10904;SDS011;5505;51.450;9.254;2023-06-26T06:58:15;4.30;;;3.90;;
10904;SDS011;5505;51.450;9.254;2023-06-26T07:01:04;4.20;;;3.90;;
10904;SDS011;5505;51.450;9.254;2023-06-26T07:03:52;4.47;;;4.07;;
10904;SDS011;5505;51.450;9.254;2023-06-26T07:06:39;4.53;;;3.80;;
10904;SDS011;5505;51.450;9.254;2023-06-26T07:09:25;4.57;;;3.97;;
10904;SDS011;5505;51.450;9.254;2023-06-26T07:12:12;5.37;;;3.60;;
10904;SDS011;5505;51.450;9.254;2023-06-26T07:14:59;4.27;;;3.87;;
10904;SDS011;5505;51.450;9.254;2023-06-26T07:17:46;4.43;;;3.70;;
10904;SDS011;5505;51.450;9.254;2023-06-26T07:20:34;3.83;;;3.53;;
10904;SDS011;5505;51.450;9.254;2023-06-26T07:23:21;3.83;;;3.40;;
10904;SDS011;5505;51.450;9.254;2023-06-26T07:26:08;5.27;;;3.93;;
10904;SDS011;5505;51.450;9.254;2023-06-26T07:28:55;5.43;;;3.93;;
10904;SDS011;5505;51.450;9.254;2023-06-26T07:31:41;3.80;;;3.50;;
10904;SDS011;5505;51.450;9.254;2023-06-26T07:34:30;3.87;;;3.57;;
10904;SDS011;5505;51.450;9.254;2023-06-26T07:37:18;4.93;;;3.90;;
10904;SDS011;5505;51.450;9.254;2023-06-26T07:40:05;3.87;;;3.57;;
10904;SDS011;5505;51.450;9.254;2023-06-26T07:42:52;4.27;;;3.87;;
10904;SDS011;5505;51.450;9.254;2023-06-26T07:45:39;3.83;;;3.53;;
10904;SDS011;5505;51.450;9.254;2023-06-26T07:48:26;4.47;;;4.03;;
10904;SDS011;5505;51.450;9.254;2023-06-26T07:51:13;6.63;;;5.07;;
10904;SDS011;5505;51.450;9.254;2023-06-26T07:54:02;3.93;;;3.60;;
10904;SDS011;5505;51.450;9.254;2023-06-26T07:56:52;5.27;;;3.97;;
10904;SDS011;5505;51.450;9.254;2023-06-26T07:59:40;4.20;;;3.80;;
10904;SDS011;5505;51.450;9.254;2023-06-26T08:02:27;3.90;;;3.60;;
10904;SDS011;5505;51.450;9.254;2023-06-26T08:05:14;5.67;;;3.60;;
10904;SDS011;5505;51.450;9.254;2023-06-26T08:08:01;6.63;;;3.60;;
10904;SDS011;5505;51.450;9.254;2023-06-26T08:10:49;4.33;;;3.90;;
10904;SDS011;5505;51.450;9.254;2023-06-26T08:13:36;5.60;;;3.90;;
10904;SDS011;5505;51.450;9.254;2023-06-26T08:16:23;3.97;;;3.67;;
10904;SDS011;5505;51.450;9.254;2023-06-26T08:19:10;6.17;;;4.07;;
10904;SDS011;5505;51.450;9.254;2023-06-26T08:21:57;5.10;;;3.93;;
10904;SDS011;5505;51.450;9.254;2023-06-26T08:24:44;4.20;;;3.80;;
10904;SDS011;5505;51.450;9.254;2023-06-26T08:27:32;4.80;;;3.93;;
10904;SDS011;5505;51.450;9.254;2023-06-26T08:30:18;4.73;;;4.00;;
10904;SDS011;5505;51.450;9.254;2023-06-26T08:33:05;5.07;;;4.20;;
10904;SDS011;5505;51.450;9.254;2023-06-26T08:35:57;4.53;;;4.00;;
10904;SDS011;5505;51.450;9.254;2023-06-26T08:38:43;4.50;;;4.00;;
10904;SDS011;5505;51.450;9.254;2023-06-26T08:41:30;4.37;;;3.97;;
10904;SDS011;5505;51.450;9.254;2023-06-26T08:44:18;6.47;;;4.03;;
10904;SDS011;5505;51.450;9.254;2023-06-26T08:47:09;5.73;;;4.30;;
10904;SDS011;5505;51.450;9.254;2023-06-26T08:50:01;4.23;;;3.93;;
10904;SDS011;5505;51.450;9.254;2023-06-26T08:52:54;4.23;;;3.83;;
10904;SDS011;5505;51.450;9.254;2023-06-26T08:55:46;5.43;;;4.13;;
10904;SDS011;5505;51.450;9.254;2023-06-26T08:58:37;4.50;;;4.07;;
10904;SDS011;5505;51.450;9.254;2023-06-26T09:01:26;5.93;;;4.22;;
10904;SDS011;5505;51.450;9.254;2023-06-26T09:04:13;5.37;;;3.80;;
10904;SDS011;5505;51.450;9.254;2023-06-26T09:07:00;5.47;;;3.57;;
10904;SDS011;5505;51.450;9.254;2023-06-26T09:09:46;7.40;;;3.70;;
10904;SDS011;5505;51.450;9.254;2023-06-26T09:12:33;4.50;;;4.10;;
10904;SDS011;5505;51.450;9.254;2023-06-26T09:15:21;4.63;;;4.23;;
10904;SDS011;5505;51.450;9.254;2023-06-26T09:18:09;4.20;;;3.90;;
10904;SDS011;5505;51.450;9.254;2023-06-26T09:20:56;4.30;;;3.70;;
10904;SDS011;5505;51.450;9.254;2023-06-26T09:23:43;4.37;;;3.80;;
10904;SDS011;5505;51.450;9.254;2023-06-26T09:26:30;10.47;;;3.87;;
10904;SDS011;5505;51.450;9.254;2023-06-26T09:29:18;4.90;;;4.40;;
10904;SDS011;5505;51.450;9.254;2023-06-26T09:32:07;4.40;;;4.00;;
10904;SDS011;5505;51.450;9.254;2023-06-26T09:34:55;6.77;;;4.10;;
10904;SDS011;5505;51.450;9.254;2023-06-26T09:37:42;5.60;;;3.90;;
10904;SDS011;5505;51.450;9.254;2023-06-26T09:40:29;8.23;;;3.80;;
10904;SDS011;5505;51.450;9.254;2023-06-26T09:43:16;4.73;;;3.60;;
10904;SDS011;5505;51.450;9.254;2023-06-26T09:46:05;6.23;;;3.47;;
10904;SDS011;5505;51.450;9.254;2023-06-26T09:48:58;4.17;;;3.60;;
10904;SDS011;5505;51.450;9.254;2023-06-26T09:51:47;6.53;;;3.50;;
10904;SDS011;5505;51.450;9.254;2023-06-26T09:54:36;4.27;;;3.60;;
10904;SDS011;5505;51.450;9.254;2023-06-26T09:57:22;4.17;;;3.50;;
10904;SDS011;5505;51.450;9.254;2023-06-26T10:00:10;6.10;;;3.57;;
10904;SDS011;5505;51.450;9.254;2023-06-26T10:02:58;4.20;;;3.80;;
10904;SDS011;5505;51.450;9.254;2023-06-26T10:05:45;6.50;;;3.53;;
10904;SDS011;5505;51.450;9.254;2023-06-26T10:08:34;6.67;;;3.80;;
10904;SDS011;5505;51.450;9.254;2023-06-26T10:11:25;5.03;;;3.90;;
10904;SDS011;5505;51.450;9.254;2023-06-26T10:14:16;5.60;;;3.60;;
10904;SDS011;5505;51.450;9.254;2023-06-26T10:17:06;4.87;;;3.90;;
10904;SDS011;5505;51.450;9.254;2023-06-26T10:19:55;6.13;;;4.10;;
10904;SDS011;5505;51.450;9.254;2023-06-26T10:22:48;5.47;;;4.10;;
10904;SDS011;5505;51.450;9.254;2023-06-26T10:25:37;4.83;;;4.30;;
10904;SDS011;5505;51.450;9.254;2023-06-26T10:28:28;6.43;;;4.53;;
10904;SDS011;5505;51.450;9.254;2023-06-26T10:31:18;6.33;;;4.70;;
10904;SDS011;5505;51.450;9.254;2023-06-26T10:34:07;5.33;;;4.83;;
10904;SDS011;5505;51.450;9.254;2023-06-26T10:37:00;8.20;;;4.77;;
10904;SDS011;5505;51.450;9.254;2023-06-26T10:39:48;5.37;;;4.87;;
10904;SDS011;5505;51.450;9.254;2023-06-26T10:42:38;9.03;;;4.93;;
10904;SDS011;5505;51.450;9.254;2023-06-26T10:45:27;7.20;;;5.10;;
10904;SDS011;5505;51.450;9.254;2023-06-26T10:48:15;9.43;;;5.50;;
10904;SDS011;5505;51.450;9.254;2023-06-26T10:51:11;8.20;;;5.30;;
10904;SDS011;5505;51.450;9.254;2023-06-26T10:54:00;12.80;;;5.37;;
10904;SDS011;5505;51.450;9.254;2023-06-26T10:56:48;8.67;;;5.40;;
10904;SDS011;5505;51.450;9.254;2023-06-26T10:59:39;7.17;;;4.90;;
10904;SDS011;5505;51.450;9.254;2023-06-26T11:02:27;7.97;;;4.93;;
10904;SDS011;5505;51.450;9.254;2023-06-26T11:05:20;5.27;;;4.60;;
10904;SDS011;5505;51.450;9.254;2023-06-26T11:08:10;7.67;;;4.50;;
10904;SDS011;5505;51.450;9.254;2023-06-26T11:11:01;5.57;;;4.60;;
10904;SDS011;5505;51.450;9.254;2023-06-26T11:13:47;5.43;;;4.93;;
10904;SDS011;5505;51.450;9.254;2023-06-26T11:16:36;10.10;;;4.90;;
10904;SDS011;5505;51.450;9.254;2023-06-26T11:19:23;8.20;;;5.03;;
10904;SDS011;5505;51.450;9.254;2023-06-26T11:22:12;8.07;;;4.70;;
10904;SDS011;5505;51.450;9.254;2023-06-26T11:25:00;8.77;;;4.60;;
10904;SDS011;5505;51.450;9.254;2023-06-26T11:27:48;8.20;;;4.30;;
10904;SDS011;5505;51.450;9.254;2023-06-26T11:30:34;5.27;;;4.30;;
10904;SDS011;5505;51.450;9.254;2023-06-26T11:33:26;6.30;;;4.33;;
10904;SDS011;5505;51.450;9.254;2023-06-26T11:36:13;6.77;;;5.00;;
10904;SDS011;5505;51.450;9.254;2023-06-26T11:39:01;8.47;;;5.40;;
10904;SDS011;5505;51.450;9.254;2023-06-26T11:41:48;12.10;;;5.60;;
10904;SDS011;5505;51.450;9.254;2023-06-26T11:44:39;9.23;;;5.47;;
10904;SDS011;5505;51.450;9.254;2023-06-26T11:47:27;9.60;;;5.40;;
10904;SDS011;5505;51.450;9.254;2023-06-26T11:50:16;8.97;;;6.10;;
10904;SDS011;5505;51.450;9.254;2023-06-26T11:53:03;7.53;;;5.63;;
10904;SDS011;5505;51.450;9.254;2023-06-26T11:55:50;9.93;;;6.13;;
10904;SDS011;5505;51.450;9.254;2023-06-26T12:01:43;9.00;;;6.23;;
10904;SDS011;5505;51.450;9.254;2023-06-26T12:04:30;6.63;;;5.80;;
10904;SDS011;5505;51.450;9.254;2023-06-26T12:07:19;7.87;;;5.70;;
10904;SDS011;5505;51.450;9.254;2023-06-26T12:10:08;7.33;;;5.73;;
10904;SDS011;5505;51.450;9.254;2023-06-26T12:12:56;10.63;;;6.00;;
10904;SDS011;5505;51.450;9.254;2023-06-26T12:15:45;6.50;;;4.90;;
10904;SDS011;5505;51.450;9.254;2023-06-26T12:18:33;6.17;;;4.70;;
10904;SDS011;5505;51.450;9.254;2023-06-26T12:24:35;7.97;;;5.17;;
10904;SDS011;5505;51.450;9.254;2023-06-26T12:27:23;8.07;;;5.47;;
10904;SDS011;5505;51.450;9.254;2023-06-26T12:30:12;8.40;;;5.43;;
10904;SDS011;5505;51.450;9.254;2023-06-26T12:32:59;6.80;;;5.17;;
10904;SDS011;5505;51.450;9.254;2023-06-26T12:35:45;7.27;;;5.17;;
10904;SDS011;5505;51.450;9.254;2023-06-26T12:38:32;7.10;;;5.47;;
10904;SDS011;5505;51.450;9.254;2023-06-26T12:41:23;9.70;;;5.57;;
10904;SDS011;5505;51.450;9.254;2023-06-26T12:44:15;9.07;;;5.07;;
10904;SDS011;5505;51.450;9.254;2023-06-26T12:47:03;8.37;;;4.77;;
10904;SDS011;5505;51.450;9.254;2023-06-26T12:49:51;6.53;;;4.83;;
10904;SDS011;5505;51.450;9.254;2023-06-26T12:52:38;7.43;;;4.63;;
10904;SDS011;5505;51.450;9.254;2023-06-26T12:55:25;6.43;;;4.50;;
10904;SDS011;5505;51.450;9.254;2023-06-26T12:58:13;6.43;;;4.20;;
10904;SDS011;5505;51.450;9.254;2023-06-26T13:01:02;7.23;;;4.70;;
10904;SDS011;5505;51.450;9.254;2023-06-26T13:03:50;4.97;;;4.47;;
10904;SDS011;5505;51.450;9.254;2023-06-26T13:06:37;7.50;;;4.00;;
10904;SDS011;5505;51.450;9.254;2023-06-26T13:09:24;6.03;;;3.53;;
10904;SDS011;5505;51.450;9.254;2023-06-26T13:12:11;5.33;;;3.37;;
10904;SDS011;5505;51.450;9.254;2023-06-26T13:14:59;5.63;;;3.40;;
10904;SDS011;5505;51.450;9.254;2023-06-26T13:17:46;7.67;;;3.40;;
10904;SDS011;5505;51.450;9.254;2023-06-26T13:20:33;7.13;;;3.17;;
10904;SDS011;5505;51.450;9.254;2023-06-26T13:23:20;6.73;;;3.00;;
10904;SDS011;5505;51.450;9.254;2023-06-26T13:26:09;6.37;;;2.90;;
10904;SDS011;5505;51.450;9.254;2023-06-26T13:28:56;3.03;;;2.53;;
10904;SDS011;5505;51.450;9.254;2023-06-26T13:31:44;8.20;;;2.67;;
10904;SDS011;5505;51.450;9.254;2023-06-26T13:34:30;4.40;;;2.73;;
10904;SDS011;5505;51.450;9.254;2023-06-26T13:37:17;5.90;;;2.67;;
10904;SDS011;5505;51.450;9.254;2023-06-26T13:40:05;4.77;;;2.87;;
10904;SDS011;5505;51.450;9.254;2023-06-26T13:42:54;5.30;;;2.80;;
10904;SDS011;5505;51.450;9.254;2023-06-26T13:45:41;4.60;;;2.27;;
10904;SDS011;5505;51.450;9.254;2023-06-26T13:48:29;4.50;;;2.87;;
10904;SDS011;5505;51.450;9.254;2023-06-26T13:51:15;5.23;;;2.67;;
10904;SDS011;5505;51.450;9.254;2023-06-26T13:54:02;4.37;;;2.40;;
10904;SDS011;5505;51.450;9.254;2023-06-26T13:56:49;6.53;;;2.20;;
10904;SDS011;5505;51.450;9.254;2023-06-26T13:59:37;7.17;;;2.30;;
10904;SDS011;5505;51.450;9.254;2023-06-26T14:02:25;5.90;;;2.37;;
10904;SDS011;5505;51.450;9.254;2023-06-26T14:05:13;7.40;;;2.10;;
10904;SDS011;5505;51.450;9.254;2023-06-26T14:08:01;9.07;;;2.97;;
10904;SDS011;5505;51.450;9.254;2023-06-26T14:10:49;5.10;;;2.20;;
10904;SDS011;5505;51.450;9.254;2023-06-26T14:13:36;3.97;;;2.13;;
10904;SDS011;5505;51.450;9.254;2023-06-26T14:16:25;6.53;;;2.23;;
10904;SDS011;5505;51.450;9.254;2023-06-26T14:19:13;5.30;;;2.10;;
10904;SDS011;5505;51.450;9.254;2023-06-26T14:22:06;7.83;;;2.00;;
10904;SDS011;5505;51.450;9.254;2023-06-26T14:24:53;4.17;;;2.20;;
10904;SDS011;5505;51.450;9.254;2023-06-26T14:27:40;7.50;;;2.50;;
10904;SDS011;5505;51.450;9.254;2023-06-26T14:30:29;4.37;;;2.37;;
10904;SDS011;5505;51.450;9.254;2023-06-26T14:33:16;5.77;;;2.73;;
10904;SDS011;5505;51.450;9.254;2023-06-26T14:36:02;4.43;;;2.27;;
10904;SDS011;5505;51.450;9.254;2023-06-26T14:38:50;8.97;;;2.27;;
10904;SDS011;5505;51.450;9.254;2023-06-26T14:41:37;4.67;;;2.20;;
10904;SDS011;5505;51.450;9.254;2023-06-26T14:44:24;4.43;;;2.10;;
10904;SDS011;5505;51.450;9.254;2023-06-26T14:47:11;6.03;;;2.20;;
10904;SDS011;5505;51.450;9.254;2023-06-26T14:49:58;4.97;;;2.60;;
10904;SDS011;5505;51.450;9.254;2023-06-26T14:52:44;6.47;;;2.00;;
10904;SDS011;5505;51.450;9.254;2023-06-26T14:55:32;4.43;;;2.10;;
10904;SDS011;5505;51.450;9.254;2023-06-26T14:58:19;4.60;;;2.30;;
10904;SDS011;5505;51.450;9.254;2023-06-26T15:01:06;4.73;;;2.00;;
10904;SDS011;5505;51.450;9.254;2023-06-26T15:03:53;3.67;;;2.30;;
10904;SDS011;5505;51.450;9.254;2023-06-26T15:06:40;12.03;;;2.47;;
10904;SDS011;5505;51.450;9.254;2023-06-26T15:09:27;9.50;;;2.40;;
10904;SDS011;5505;51.450;9.254;2023-06-26T15:12:15;4.47;;;1.97;;
10904;SDS011;5505;51.450;9.254;2023-06-26T15:15:02;4.77;;;2.10;;
10904;SDS011;5505;51.450;9.254;2023-06-26T15:17:49;14.23;;;2.13;;
10904;SDS011;5505;51.450;9.254;2023-06-26T15:20:36;2.63;;;2.00;;
10904;SDS011;5505;51.450;9.254;2023-06-26T15:23:23;4.43;;;2.40;;
10904;SDS011;5505;51.450;9.254;2023-06-26T15:26:12;4.60;;;2.30;;
10904;SDS011;5505;51.450;9.254;2023-06-26T15:29:00;6.63;;;2.23;;
10904;SDS011;5505;51.450;9.254;2023-06-26T15:31:47;7.77;;;2.20;;
10904;SDS011;5505;51.450;9.254;2023-06-26T15:34:34;5.07;;;1.70;;
10904;SDS011;5505;51.450;9.254;2023-06-26T15:37:20;4.10;;;2.00;;
10904;SDS011;5505;51.450;9.254;2023-06-26T15:40:08;7.93;;;2.00;;
10904;SDS011;5505;51.450;9.254;2023-06-26T15:42:56;4.00;;;1.90;;
10904;SDS011;5505;51.450;9.254;2023-06-26T15:45:44;4.57;;;1.80;;
10904;SDS011;5505;51.450;9.254;2023-06-26T15:48:31;5.17;;;1.80;;
10904;SDS011;5505;51.450;9.254;2023-06-26T15:51:18;2.97;;;2.20;;
10904;SDS011;5505;51.450;9.254;2023-06-26T15:54:05;4.47;;;1.43;;
10904;SDS011;5505;51.450;9.254;2023-06-26T15:56:52;4.03;;;1.60;;
10904;SDS011;5505;51.450;9.254;2023-06-26T15:59:39;3.17;;;1.33;;
10904;SDS011;5505;51.450;9.254;2023-06-26T16:02:27;4.73;;;1.60;;
10904;SDS011;5505;51.450;9.254;2023-06-26T16:05:14;3.20;;;1.27;;
10904;SDS011;5505;51.450;9.254;2023-06-26T16:08:01;3.93;;;1.20;;
10904;SDS011;5505;51.450;9.254;2023-06-26T16:10:47;3.00;;;1.20;;
10904;SDS011;5505;51.450;9.254;2023-06-26T16:13:34;5.50;;;1.30;;
10904;SDS011;5505;51.450;9.254;2023-06-26T16:16:21;4.70;;;1.37;;
10904;SDS011;5505;51.450;9.254;2023-06-26T16:19:09;4.10;;;1.17;;
10904;SDS011;5505;51.450;9.254;2023-06-26T16:21:56;1.73;;;1.00;;
10904;SDS011;5505;51.450;9.254;2023-06-26T16:24:42;5.20;;;1.30;;
10904;SDS011;5505;51.450;9.254;2023-06-26T16:27:29;4.67;;;1.30;;
10904;SDS011;5505;51.450;9.254;2023-06-26T16:30:16;2.53;;;1.27;;
10904;SDS011;5505;51.450;9.254;2023-06-26T16:33:03;2.20;;;1.17;;
10904;SDS011;5505;51.450;9.254;2023-06-26T16:35:51;3.03;;;1.03;;
10904;SDS011;5505;51.450;9.254;2023-06-26T16:38:38;3.77;;;1.20;;
10904;SDS011;5505;51.450;9.254;2023-06-26T16:41:26;3.97;;;1.33;;
10904;SDS011;5505;51.450;9.254;2023-06-26T16:44:13;3.65;;;1.27;;
10904;SDS011;5505;51.450;9.254;2023-06-26T16:47:00;4.40;;;1.50;;
10904;SDS011;5505;51.450;9.254;2023-06-26T16:49:47;7.73;;;1.50;;
10904;SDS011;5505;51.450;9.254;2023-06-26T16:52:35;3.80;;;1.00;;
10904;SDS011;5505;51.450;9.254;2023-06-26T16:55:22;2.53;;;1.27;;
10904;SDS011;5505;51.450;9.254;2023-06-26T16:58:08;2.13;;;1.10;;
10904;SDS011;5505;51.450;9.254;2023-06-26T17:00:55;6.07;;;1.27;;
10904;SDS011;5505;51.450;9.254;2023-06-26T17:03:42;4.57;;;1.57;;
10904;SDS011;5505;51.450;9.254;2023-06-26T17:06:29;3.73;;;1.00;;
10904;SDS011;5505;51.450;9.254;2023-06-26T17:09:17;3.20;;;1.40;;
10904;SDS011;5505;51.450;9.254;2023-06-26T17:12:05;2.03;;;1.20;;